Time;durP1;ratioP1;P1;durP2;ratioP2;P2;SDS_P1;SDS_P2;PMS_P1;PMS_P2;Temp;Humidity;BMP_temperature;BMP_pressure;BME280_temperature;BME280_humidity;BME280_pressure;Samples;Min_cycle;Max_cycle;Signal;HPM_P1;HPM_P2
2022/08/10 00:00:27;;;;;;;4.93;2.20;;;;;;;20.83;57.65;102873.53;4985487;28;20794;-54
2022/08/10 00:03:00;;;;;;;2.72;2.17;;;;;;;20.51;58.32;102874.31;4974279;28;20033;-52
2022/08/10 00:05:26;;;;;;;2.50;2.20;;;;;;;20.62;57.99;102879.63;4981631;28;20484;-52
2022/08/10 00:07:53;;;;;;;3.63;2.20;;;;;;;20.58;57.68;102869.91;4978125;28;20638;-53
2022/08/10 00:10:26;;;;;;;3.22;2.03;;;;;;;20.47;57.77;102872.53;4978730;28;20281;-52
2022/08/10 00:12:52;;;;;;;3.00;1.80;;;;;;;20.60;57.70;102866.41;4986552;28;20033;-53
2022/08/10 00:15:20;;;;;;;4.18;2.17;;;;;;;20.55;57.21;102869.91;4978366;28;20627;-53
2022/08/10 00:17:45;;;;;;;2.30;2.10;;;;;;;20.64;57.11;102875.22;4980375;28;20452;-53
2022/08/10 00:20:13;;;;;;;4.15;2.17;;;;;;;20.63;56.94;102877.00;4979111;28;20029;-53
2022/08/10 00:22:39;;;;;;;5.50;2.10;;;;;;;20.51;57.04;102868.13;4996334;28;21068;-54
2022/08/10 00:25:06;;;;;;;5.03;2.10;;;;;;;20.60;56.82;102870.81;4992140;28;20121;-55
2022/08/10 00:27:31;;;;;;;5.10;2.03;;;;;;;20.61;56.94;102876.09;4975116;28;20065;-55
2022/08/10 00:29:57;;;;;;;2.30;2.08;;;;;;;20.46;57.18;102868.09;4983654;28;20454;-54
2022/08/10 00:32:23;;;;;;;2.50;2.00;;;;;;;20.50;56.95;102861.03;4973510;28;20021;-55
2022/08/10 00:34:48;;;;;;;2.78;1.98;;;;;;;20.56;56.44;102855.75;4978065;28;20102;-55
2022/08/10 00:37:16;;;;;;;4.47;2.10;;;;;;;20.46;56.96;102859.25;4987119;28;20037;-54
2022/08/10 00:39:41;;;;;;;4.78;2.50;;;;;;;20.16;57.66;102855.56;4986228;28;20496;-52
2022/08/10 00:42:08;;;;;;;2.40;2.03;;;;;;;20.40;56.85;102852.19;4988727;28;20033;-52
2022/08/10 00:44:53;;;;;;;2.70;2.30;;;;;;;20.34;56.82;102860.09;4980769;28;20041;-53
2022/08/10 00:47:21;;;;;;;;;;;;;;;20.00;57.90;102858.13;4983740;28;20072;-53
2022/08/10 00:49:47;;;;;;;3.88;1.90;;;;;;;20.18;57.18;102860.88;4981212;28;19935;-54
2022/08/10 00:52:14;;;;;;;4.13;2.20;;;;;;;20.13;57.11;102863.47;4979654;28;20304;-52
2022/08/10 00:54:42;;;;;;;4.10;2.20;;;;;;;20.00;57.09;102863.44;4980961;28;20048;-52
2022/08/10 00:57:08;;;;;;;3.03;2.30;;;;;;;20.01;57.51;102862.53;4984820;28;20042;-54
2022/08/10 00:59:34;;;;;;;3.67;2.10;;;;;;;20.08;56.85;102862.56;4979953;28;20495;-50
2022/08/10 01:02:00;;;;;;;2.58;2.30;;;;;;;20.07;56.82;102857.25;4984891;28;20061;-54
2022/08/10 01:04:28;;;;;;;5.13;2.30;;;;;;;19.98;56.72;102857.22;4963436;28;20495;-55
2022/08/10 01:07:18;;;;;;;2.80;2.28;;;;;;;19.91;56.96;102864.25;4985652;28;20509;-54
2022/08/10 01:09:44;;;;;;;2.80;2.20;;;;;;;19.95;57.01;102854.53;4999082;28;20048;-51
2022/08/10 01:12:33;;;;;;;4.03;2.28;;;;;;;19.91;56.83;102848.34;4981812;28;20033;-55
2022/08/10 01:15:23;;;;;;;5.07;2.30;;;;;;;19.92;56.88;102852.78;4990727;28;20056;-54
2022/08/10 01:17:54;;;;;;;3.03;2.60;;;;;;;19.80;57.00;102858.00;4997214;28;20040;-54
2022/08/10 01:20:25;;;;;;;2.58;2.17;;;;;;;19.92;56.65;102844.84;4978221;28;20640;-54
2022/08/10 01:23:21;;;;;;;3.08;2.25;;;;;;;19.97;56.57;102847.50;4977366;28;20714;-50
2022/08/10 01:26:33;;;;;;;3.67;2.42;;;;;;;19.83;57.00;102850.06;4977449;28;20033;-54
2022/08/10 01:29:23;;;;;;;4.97;2.30;;;;;;;19.95;56.61;102843.97;4971972;28;20065;-52
2022/08/10 01:31:52;;;;;;;3.28;2.40;;;;;;;19.74;57.13;102842.06;4975001;28;20041;-53
2022/08/10 01:34:32;;;;;;;2.58;2.30;;;;;;;19.75;57.50;102843.84;4985480;28;20073;-53
2022/08/10 01:37:06;;;;;;;3.72;2.40;;;;;;;19.73;57.38;102845.59;4984600;28;20093;-54
2022/08/10 01:39:36;;;;;;;;;;;;;;;19.62;57.73;102842.00;4977289;28;20109;-54
2022/08/10 01:42:03;;;;;;;3.38;2.30;;;;;;;19.77;57.26;102844.72;4986075;28;19924;-52
2022/08/10 01:44:34;;;;;;;3.47;2.70;;;;;;;19.54;58.07;102841.03;4985175;28;20033;-52
2022/08/10 01:50:06;;;;;;;4.85;2.80;;;;;;;19.73;57.57;102832.38;4984611;28;20071;-54
2022/08/10 01:52:35;;;;;;;5.72;2.63;;;;;;;19.75;57.27;102828.88;4977123;28;20036;-55
2022/08/10 01:55:01;;;;;;;3.53;2.72;;;;;;;19.65;57.66;102839.34;4977802;28;20021;-55
2022/08/10 01:57:32;;;;;;;5.72;2.40;;;;;;;19.55;58.07;102838.41;4988258;28;20056;-53
2022/08/10 01:59:59;;;;;;;4.57;2.88;;;;;;;19.50;58.50;102837.50;4984392;28;20045;-53
2022/08/10 02:02:28;;;;;;;4.50;2.80;;;;;;;19.43;58.52;102833.88;4984084;28;20287;-53
2022/08/10 02:04:54;;;;;;;5.47;2.80;;;;;;;19.54;58.06;102839.28;4973878;28;20045;-53
2022/08/10 02:07:23;;;;;;;4.03;2.67;;;;;;;19.36;58.83;102832.06;4979659;28;20066;-53
2022/08/10 02:09:52;;;;;;;4.45;2.83;;;;;;;19.40;58.73;102832.94;4986764;28;20037;-53
2022/08/10 02:12:26;;;;;;;6.63;2.90;;;;;;;19.52;58.23;102837.53;4991872;28;20053;-52
2022/08/10 02:15:04;;;;;;;6.30;3.30;;;;;;;19.33;58.93;102837.31;4988091;28;20938;-52
2022/08/10 02:17:40;;;;;;;3.20;2.90;;;;;;;19.48;58.40;102835.69;4992580;28;20037;-54
2022/08/10 02:20:09;;;;;;;4.05;2.80;;;;;;;19.43;58.57;102839.19;4984070;28;20964;-52
2022/08/10 02:22:37;;;;;;;3.92;2.78;;;;;;;19.41;58.64;102832.97;4985895;28;20087;-54
2022/08/10 02:25:05;;;;;;;3.30;2.85;;;;;;;19.24;59.24;102829.31;4979743;28;20041;-55
2022/08/10 02:27:32;;;;;;;3.60;3.10;;;;;;;19.29;58.95;102838.16;4996386;28;20112;-56
2022/08/10 02:29:59;;;;;;;3.28;2.90;;;;;;;19.38;58.59;102835.63;4984092;28;20049;-53
2022/08/10 02:32:29;;;;;;;4.40;2.90;;;;;;;19.32;58.92;102829.38;4991724;28;20133;-54
2022/08/10 02:34:55;;;;;;;3.50;2.90;;;;;;;19.35;58.87;102839.97;4984984;28;20045;-55
2022/08/10 02:37:24;;;;;;;3.30;2.90;;;;;;;19.37;58.88;102838.25;4980270;28;20399;-53
2022/08/10 02:39:50;;;;;;;3.60;3.00;;;;;;;19.21;59.56;102836.34;4983472;28;20039;-54
2022/08/10 02:42:37;;;;;;;6.75;3.00;;;;;;;19.28;59.33;102830.22;4982394;28;21040;-55
2022/08/10 02:45:12;;;;;;;4.05;2.95;;;;;;;19.27;59.15;102834.59;4988227;28;20484;-54
2022/08/10 02:47:42;;;;;;;4.00;3.28;;;;;;;19.09;59.75;102823.00;4985542;28;20496;-54
2022/08/10 02:50:27;;;;;;;4.03;2.88;;;;;;;19.20;59.56;102822.25;4989836;28;20500;-53
2022/08/10 02:53:09;;;;;;;4.88;3.00;;;;;;;19.20;59.91;102816.06;4983399;28;20687;-54
2022/08/10 02:55:43;;;;;;;9.75;3.47;;;;;;;19.10;60.03;102815.06;4986762;28;20119;-55
2022/08/10 02:58:10;;;;;;;;;;;;;;;19.09;60.26;102807.16;4989419;28;20188;-54
2022/08/10 03:00:54;;;;;;;4.22;3.13;;;;;;;19.11;60.05;102810.69;4981271;28;19920;-54
2022/08/10 03:03:24;;;;;;;4.38;3.20;;;;;;;19.09;59.96;102802.72;4985166;28;20033;-54
2022/08/10 03:05:55;;;;;;;6.13;3.10;;;;;;;18.92;60.64;102805.22;4986169;28;20050;-53
2022/08/10 03:08:26;;;;;;;4.47;3.40;;;;;;;19.00;60.57;102806.19;4993287;28;20037;-55
2022/08/10 03:10:52;;;;;;;4.18;3.38;;;;;;;19.01;60.87;102804.44;4986212;28;20136;-53
2022/08/10 03:13:19;;;;;;;3.65;3.10;;;;;;;18.99;61.00;102801.75;4980746;28;20061;-55
2022/08/10 03:15:46;;;;;;;5.00;3.13;;;;;;;19.05;60.74;102796.53;4995380;28;20022;-54
2022/08/10 03:18:13;;;;;;;4.85;3.13;;;;;;;18.92;61.14;102801.69;4978445;28;20053;-54
2022/08/10 03:20:40;;;;;;;5.78;3.53;;;;;;;18.96;61.26;102795.56;4981287;28;20400;-55
2022/08/10 03:23:15;;;;;;;4.03;3.20;;;;;;;18.91;61.04;102799.91;4983614;28;20034;-54
2022/08/10 03:25:43;;;;;;;4.38;3.33;;;;;;;18.93;61.20;102791.13;4981158;28;20040;-53
2022/08/10 03:28:10;;;;;;;4.05;3.22;;;;;;;18.82;61.54;102799.84;4987959;28;20087;-53
2022/08/10 03:30:36;;;;;;;5.07;3.55;;;;;;;18.79;61.77;102800.69;4975933;28;20520;-55
2022/08/10 03:33:04;;;;;;;4.85;3.25;;;;;;;18.80;61.90;102801.56;4986524;28;20653;-53
2022/08/10 03:35:29;;;;;;;4.50;3.38;;;;;;;18.72;62.31;102808.56;4980786;28;20033;-54
2022/08/10 03:37:55;;;;;;;4.05;3.40;;;;;;;18.76;62.21;102805.94;4977012;28;20107;-53
2022/08/10 03:40:21;;;;;;;4.63;3.22;;;;;;;18.78;61.93;102806.84;4985667;28;20033;-53
2022/08/10 03:42:49;;;;;;;6.45;3.63;;;;;;;18.68;62.57;102801.44;4974565;28;20880;-55
2022/08/10 03:45:16;;;;;;;5.00;3.63;;;;;;;18.74;62.18;102806.78;4985077;28;20072;-51
2022/08/10 03:47:43;;;;;;;4.50;3.50;;;;;;;18.74;62.01;102802.38;4995514;28;20079;-53
2022/08/10 03:50:09;;;;;;;5.00;3.50;;;;;;;18.77;61.94;102805.09;4968674;28;20087;-54
2022/08/10 03:52:35;;;;;;;6.05;3.42;;;;;;;18.78;61.95;102798.03;4984957;28;20030;-54
2022/08/10 03:55:02;;;;;;;4.75;3.55;;;;;;;18.74;62.26;102798.88;4981274;28;20060;-53
2022/08/10 03:57:28;;;;;;;4.65;3.60;;;;;;;18.70;62.56;102797.97;4991290;28;20148;-49
2022/08/10 03:59:55;;;;;;;4.30;3.55;;;;;;;18.68;62.41;102799.69;4982321;28;20025;-53
2022/08/10 04:02:21;;;;;;;4.90;3.72;;;;;;;18.66;62.81;102798.81;4974184;28;20455;-55
2022/08/10 04:04:46;;;;;;;4.18;3.25;;;;;;;18.69;62.65;102796.19;4978748;28;20052;-55
2022/08/10 04:07:12;;;;;;;4.88;3.38;;;;;;;18.63;63.19;102799.66;4982301;28;20041;-54
2022/08/10 04:09:38;;;;;;;4.28;3.50;;;;;;;18.66;63.02;102795.28;4984834;28;20404;-54
2022/08/10 04:12:05;;;;;;;4.78;3.80;;;;;;;18.53;63.42;102796.88;4987714;28;20079;-55
2022/08/10 04:14:40;;;;;;;5.03;3.67;;;;;;;18.56;63.39;102800.44;4970660;28;20432;-53
2022/08/10 04:17:06;;;;;;;4.57;3.58;;;;;;;18.58;63.22;102798.72;4979519;28;20590;-52
2022/08/10 04:19:40;;;;;;;6.10;3.92;;;;;;;18.53;63.42;102800.41;4976097;28;22331;-54
2022/08/10 04:22:12;;;;;;;4.93;3.67;;;;;;;18.58;63.55;102798.72;4992201;28;20025;-54
2022/08/10 04:24:40;;;;;;;5.90;3.80;;;;;;;18.55;63.69;102800.41;4970166;28;20037;-54
2022/08/10 04:27:05;;;;;;;4.70;3.83;;;;;;;18.42;64.12;102803.78;4983475;28;20040;-54
2022/08/10 04:29:31;;;;;;;5.70;3.85;;;;;;;18.46;64.24;102801.19;4979027;28;20041;-52
2022/08/10 04:31:56;;;;;;;6.13;3.65;;;;;;;18.57;63.78;102798.69;4984431;28;20484;-53
2022/08/10 04:34:30;;;;;;;4.60;3.80;;;;;;;18.50;64.13;102797.69;4983867;28;20033;-55
2022/08/10 04:36:59;;;;;;;5.35;4.03;;;;;;;18.61;63.91;102795.19;4978902;28;20833;-54
2022/08/10 04:39:24;;;;;;;4.38;3.78;;;;;;;18.60;64.18;102793.47;4986087;28;21524;-55
2022/08/10 04:41:50;;;;;;;5.53;3.60;;;;;;;18.65;63.93;102797.03;4987488;28;20502;-54
2022/08/10 04:44:16;;;;;;;5.25;4.10;;;;;;;18.52;64.67;102790.69;4971305;28;20132;-51
2022/08/10 04:46:41;;;;;;;6.10;4.30;;;;;;;18.64;64.27;102801.41;4984729;28;20274;-51
2022/08/10 04:49:06;;;;;;;4.35;3.90;;;;;;;18.67;64.23;102795.25;4987274;28;20072;-53
2022/08/10 04:51:32;;;;;;;6.63;4.20;;;;;;;18.76;64.08;102800.66;4989621;28;20075;-54
2022/08/10 04:53:57;;;;;;;6.28;3.85;;;;;;;18.79;63.87;102795.38;4980831;28;20447;-53
2022/08/10 04:56:23;;;;;;;5.95;4.00;;;;;;;18.78;64.16;102800.69;4994815;28;20652;-56
2022/08/10 04:58:48;;;;;;;7.93;3.75;;;;;;;18.93;63.65;102803.47;4976847;28;20044;-55
2022/08/10 05:01:14;;;;;;;5.80;4.00;;;;;;;18.94;63.65;102798.19;4987324;28;20033;-54
2022/08/10 05:03:39;;;;;;;5.78;4.00;;;;;;;18.94;64.00;102798.19;4974376;28;20366;-53
2022/08/10 05:06:05;;;;;;;6.55;4.50;;;;;;;18.92;63.86;102802.56;4989953;28;20033;-55
2022/08/10 05:08:30;;;;;;;6.45;4.30;;;;;;;19.06;63.89;102802.72;4970236;28;20025;-52
2022/08/10 05:10:56;;;;;;;5.85;4.25;;;;;;;19.01;64.05;102797.38;4991809;28;20041;-53
2022/08/10 05:13:21;;;;;;;4.90;4.10;;;;;;;19.04;64.06;102807.97;4977844;28;20036;-52
2022/08/10 05:15:49;;;;;;;6.97;4.80;;;;;;;19.03;64.43;102811.47;4979720;28;20678;-53
2022/08/10 05:18:14;;;;;;;5.53;4.43;;;;;;;19.00;64.88;102807.94;4980520;28;20033;-54
2022/08/10 05:20:40;;;;;;;6.55;4.30;;;;;;;19.14;64.56;102803.66;4975761;28;20136;-53
2022/08/10 05:23:06;;;;;;;6.43;4.10;;;;;;;19.30;63.90;102805.56;4986560;28;20029;-55
2022/08/10 05:25:31;;;;;;;7.57;4.85;;;;;;;19.04;65.10;102801.78;4985589;28;20409;-54
2022/08/10 05:27:57;;;;;;;5.63;4.40;;;;;;;19.29;64.41;102810.81;4976580;28;20049;-53
2022/08/10 05:30:30;;;;;;;10.05;4.63;;;;;;;19.41;64.49;102811.81;4973215;28;20116;-54
2022/08/10 05:32:56;;;;;;;6.93;4.63;;;;;;;19.63;63.63;102814.66;4980884;28;20137;-55
2022/08/10 05:35:22;;;;;;;6.03;4.30;;;;;;;19.71;63.23;102813.81;4965974;28;20028;-53
2022/08/10 05:37:51;;;;;;;8.25;4.88;;;;;;;19.81;63.53;102809.50;4984831;28;20037;-55
2022/08/10 05:40:17;;;;;;;7.60;4.95;;;;;;;20.02;63.03;102800.75;4977816;28;20309;-54
2022/08/10 05:42:43;;;;;;;7.75;4.80;;;;;;;20.28;61.95;102799.13;4980092;28;20948;-52
2022/08/10 05:45:23;;;;;;;7.50;4.97;;;;;;;20.34;61.65;102795.63;4978994;28;20080;-55
2022/08/10 05:47:48;;;;;;;7.13;5.20;;;;;;;20.40;61.41;102801.84;4992605;28;20060;-55
2022/08/10 05:50:26;;;;;;;6.65;5.18;;;;;;;20.25;62.15;102801.75;4991445;28;20095;-53
2022/08/10 05:52:53;;;;;;;7.75;5.00;;;;;;;20.31;62.27;102800.91;4986133;28;20119;-53
2022/08/10 05:55:39;;;;;;;6.40;4.80;;;;;;;20.37;62.07;102801.81;4990992;28;20032;-50
2022/08/10 05:58:05;;;;;;;8.38;5.20;;;;;;;20.46;62.18;102800.97;4980206;28;20455;-51
2022/08/10 06:00:33;;;;;;;6.95;5.00;;;;;;;20.34;62.52;102799.19;4979333;28;20048;-53
2022/08/10 06:03:04;;;;;;;6.97;5.13;;;;;;;20.37;62.73;102796.53;4982981;28;20067;-51
2022/08/10 06:05:33;;;;;;;6.57;5.10;;;;;;;20.54;62.19;102792.19;4985322;28;20033;-56
2022/08/10 06:08:08;;;;;;;6.82;5.18;;;;;;;20.72;61.69;102796.63;4990834;28;20026;-54
2022/08/10 06:10:38;;;;;;;9.27;5.40;;;;;;;20.77;61.23;102801.94;4979190;28;20410;-56
2022/08/10 06:15:54;;;;;;;11.65;6.28;;;;;;;20.26;63.44;102801.75;4980890;28;20675;-55
2022/08/10 06:18:19;;;;;;;9.85;5.65;;;;;;;20.97;61.50;102802.88;4985152;28;20025;-54
2022/08/10 06:20:45;;;;;;;6.70;5.13;;;;;;;22.33;57.86;102801.75;4987382;28;20760;-53
2022/08/10 06:23:12;;;;;;;7.47;5.38;;;;;;;23.77;53.71;102797.16;4982398;28;20737;-53
2022/08/10 06:25:38;;;;;;;7.80;5.60;;;;;;;23.96;53.12;102800.50;4986877;28;20148;-55
2022/08/10 06:28:08;;;;;;;8.10;5.95;;;;;;;24.38;50.93;102802.66;4983627;28;20518;-52
2022/08/10 06:30:34;;;;;;;8.55;5.22;;;;;;;24.02;51.96;102797.75;4981116;28;20033;-52
2022/08/10 06:33:03;;;;;;;7.20;5.18;;;;;;;25.47;48.78;102794.72;4975688;28;20053;-53
2022/08/10 06:35:32;;;;;;;7.40;5.30;;;;;;;25.38;48.35;102793.09;4966462;28;20037;-54
2022/08/10 06:38:05;;;;;;;9.43;4.80;;;;;;;26.72;45.38;102787.69;4958677;28;20412;-54
2022/08/10 06:40:38;;;;;;;7.32;5.00;;;;;;;26.73;45.38;102788.56;4965287;28;20120;-55
2022/08/10 06:43:17;;;;;;;7.40;4.70;;;;;;;26.70;44.68;102786.84;4978752;28;20029;-56
2022/08/10 06:45:52;;;;;;;6.55;4.75;;;;;;;26.57;45.36;102796.09;4965169;28;20697;-54
2022/08/10 06:48:44;;;;;;;6.88;4.80;;;;;;;26.43;45.50;102790.16;4969082;28;20148;-54
2022/08/10 06:51:16;;;;;;;8.05;5.07;;;;;;;26.20;45.82;102796.84;4978146;28;20049;-52
2022/08/10 06:53:48;;;;;;;8.95;4.90;;;;;;;26.51;45.77;102797.09;4978022;28;20695;-51
2022/08/10 06:56:19;;;;;;;6.10;4.63;;;;;;;26.78;43.99;102795.56;4982487;28;20030;-56
2022/08/10 06:59:07;;;;;;;6.80;4.20;;;;;;;27.94;41.81;102801.50;4977460;28;20508;-50
2022/08/10 07:01:35;;;;;;;6.60;4.10;;;;;;;28.01;41.99;102794.16;4996602;28;20576;-55
2022/08/10 07:04:10;;;;;;;6.40;4.50;;;;;;;28.52;40.18;102802.47;4970932;28;20060;-55
2022/08/10 07:06:40;;;;;;;9.25;4.28;;;;;;;28.07;41.61;102802.91;4977237;28;20614;-54
2022/08/10 07:09:10;;;;;;;6.65;4.55;;;;;;;28.15;41.43;102803.59;4973786;28;20033;-52
2022/08/10 07:11:37;;;;;;;10.00;4.20;;;;;;;28.60;41.25;102800.44;4978380;28;20061;-50
2022/08/10 07:14:12;;;;;;;6.30;3.83;;;;;;;28.92;40.50;102799.41;4981538;28;20039;-57
2022/08/10 07:16:45;;;;;;;6.68;4.50;;;;;;;28.32;41.34;102789.66;4983417;28;20638;-57
2022/08/10 07:19:12;;;;;;;6.32;4.28;;;;;;;28.77;39.73;102783.81;4969503;28;20049;-54
2022/08/10 07:21:45;;;;;;;6.47;3.78;;;;;;;28.74;40.45;102789.28;4977940;28;20037;-52
2022/08/10 07:24:14;;;;;;;7.78;3.80;;;;;;;27.62;42.97;102793.50;4978419;28;20658;-52
2022/08/10 07:26:47;;;;;;;6.07;4.30;;;;;;;27.81;42.27;102784.03;4970475;28;20069;-55
2022/08/10 07:29:14;;;;;;;6.82;4.20;;;;;;;27.47;42.53;102786.69;4960071;28;20048;-51
2022/08/10 07:31:44;;;;;;;6.93;4.60;;;;;;;26.06;45.86;102798.94;4982409;28;20029;-52
2022/08/10 07:34:13;;;;;;;10.13;4.30;;;;;;;26.77;44.62;102791.16;4976921;28;20121;-53
2022/08/10 07:36:42;;;;;;;8.07;4.35;;;;;;;28.36;41.69;102796.69;4977476;28;20029;-53
2022/08/10 07:39:09;;;;;;;6.95;4.10;;;;;;;28.48;41.12;102790.09;4969100;28;20720;-54
2022/08/10 07:41:40;;;;;;;6.32;4.20;;;;;;;28.62;40.33;102793.19;4966345;28;20117;-52
2022/08/10 07:44:08;;;;;;;7.90;4.22;;;;;;;28.87;40.02;102794.22;4984727;28;20053;-55
2022/08/10 07:46:37;;;;;;;8.10;4.53;;;;;;;28.80;40.50;102797.13;4966796;28;20148;-52
2022/08/10 07:49:33;;;;;;;7.80;4.10;;;;;;;29.42;39.83;102800.41;4982004;28;20512;-54
2022/08/10 07:51:59;;;;;;;7.47;4.43;;;;;;;29.17;38.74;102802.16;4973756;28;20695;-56
2022/08/10 07:54:29;;;;;;;6.20;3.80;;;;;;;30.79;35.95;102793.44;4977147;28;20049;-57
2022/08/10 07:57:05;;;;;;;6.88;4.07;;;;;;;29.92;37.49;102805.81;4962289;28;20488;-53
2022/08/10 07:59:37;;;;;;;6.95;4.10;;;;;;;29.17;39.27;102803.03;4987128;28;20041;-54
2022/08/10 08:02:06;;;;;;;5.78;4.20;;;;;;;28.94;40.41;102803.81;4995526;28;20742;-54
2022/08/10 08:04:38;;;;;;;5.45;4.00;;;;;;;30.20;37.72;102803.84;4988994;28;20049;-54
2022/08/10 08:07:18;;;;;;;6.13;3.80;;;;;;;30.13;38.74;102815.78;4988780;28;20939;-55
2022/08/10 08:09:47;;;;;;;6.95;4.03;;;;;;;31.06;37.03;102804.03;4992042;28;20111;-53
2022/08/10 08:12:14;;;;;;;5.50;3.92;;;;;;;30.44;36.34;102808.25;4964844;28;20147;-52
2022/08/10 08:14:44;;;;;;;4.88;3.78;;;;;;;30.77;36.08;102805.19;4988416;28;20151;-54
2022/08/10 08:17:12;;;;;;;9.32;4.05;;;;;;;31.13;35.94;102803.69;4990612;28;20578;-54
2022/08/10 08:19:38;;;;;;;6.13;3.47;;;;;;;31.01;36.01;102802.38;4951536;28;20678;-56
2022/08/10 08:22:05;;;;;;;5.85;3.70;;;;;;;30.18;37.81;102803.91;4975689;28;20069;-55
2022/08/10 08:24:33;;;;;;;7.93;3.55;;;;;;;31.15;35.11;102803.66;4969317;28;20090;-55
2022/08/10 08:27:00;;;;;;;5.82;3.50;;;;;;;30.71;37.01;102800.94;4982890;28;20508;-53
2022/08/10 08:29:27;;;;;;;9.02;4.10;;;;;;;30.49;36.73;102800.94;4982108;28;20489;-56
2022/08/10 08:31:56;;;;;;;6.03;4.10;;;;;;;29.71;37.71;102810.13;4972903;28;20037;-56
2022/08/10 08:34:27;;;;;;;5.88;3.97;;;;;;;29.24;39.06;102804.59;4978086;28;21873;-58
2022/08/10 08:36:54;;;;;;;9.52;4.43;;;;;;;28.42;40.81;102795.66;4971272;28;20032;-53
2022/08/10 08:39:20;;;;;;;7.57;4.63;;;;;;;28.22;40.57;102799.81;4974772;28;20489;-53
2022/08/10 08:42:10;;;;;;;6.97;4.10;;;;;;;28.30;40.80;102796.88;4971796;28;20029;-54
2022/08/10 08:44:38;;;;;;;11.05;4.15;;;;;;;27.80;41.46;102804.59;4991288;28;20923;-53
2022/08/10 08:47:49;;;;;;;5.70;3.65;;;;;;;27.67;40.81;102799.59;4974394;28;20153;-54
2022/08/10 08:50:39;;;;;;;5.20;3.70;;;;;;;26.87;42.49;102798.03;4971737;28;20080;-52
2022/08/10 08:53:23;;;;;;;6.78;3.65;;;;;;;27.44;41.13;102793.03;4983266;28;20385;-52
2022/08/10 08:56:29;;;;;;;7.60;3.47;;;;;;;28.01;41.84;102787.00;4978635;28;20045;-52
2022/08/10 08:59:10;;;;;;;7.68;3.72;;;;;;;27.66;40.89;102787.13;4982060;28;20041;-52
2022/08/10 09:01:46;;;;;;;6.30;3.40;;;;;;;28.05;40.55;102791.34;4991682;28;20510;-52
2022/08/10 09:04:48;;;;;;;4.55;3.20;;;;;;;28.05;42.37;102788.69;4983918;28;20043;-51
2022/08/10 09:07:21;;;;;;;5.75;3.58;;;;;;;28.40;39.07;102776.91;4988898;28;20036;-49
2022/08/10 09:10:13;;;;;;;5.88;3.60;;;;;;;27.71;40.11;102777.16;4986286;28;20052;-51
2022/08/10 09:12:51;;;;;;;6.68;3.60;;;;;;;27.73;39.83;102778.00;4973817;28;20420;-51
2022/08/10 09:15:46;;;;;;;6.72;3.30;;;;;;;28.01;40.01;102773.59;4980716;28;20088;-57
2022/08/10 09:18:28;;;;;;;4.63;2.95;;;;;;;28.40;39.20;102763.50;4953058;28;20735;-54
2022/08/10 09:21:05;;;;;;;6.17;3.13;;;;;;;28.83;38.42;102764.84;4976753;28;20603;-52
2022/08/10 09:23:51;;;;;;;6.57;3.22;;;;;;;28.34;39.35;102762.81;4976454;28;20288;-58
2022/08/10 09:26:26;;;;;;;4.15;3.00;;;;;;;28.59;38.64;102756.63;4976481;28;21211;-60
2022/08/10 09:29:00;;;;;;;5.53;2.85;;;;;;;28.61;37.88;102749.38;4973064;28;20449;-59
2022/08/10 09:31:31;;;;;;;3.70;2.50;;;;;;;28.55;37.67;102752.25;4975781;28;20086;-57
2022/08/10 09:34:27;;;;;;;4.07;2.78;;;;;;;28.65;38.84;102748.38;4980637;28;20046;-58
2022/08/10 09:37:06;;;;;;;4.50;2.35;;;;;;;28.81;37.57;102745.19;4976529;28;20050;-57
2022/08/10 09:39:43;;;;;;;5.13;2.80;;;;;;;28.75;38.44;102748.97;5004823;28;20052;-55
2022/08/10 09:42:31;;;;;;;11.80;2.80;;;;;;;28.71;37.31;102736.56;4981476;28;20022;-56
2022/08/10 09:45:10;;;;;;;3.42;2.20;;;;;;;29.23;37.03;102735.66;4983899;28;20033;-56
2022/08/10 09:47:50;;;;;;;4.85;2.25;;;;;;;29.25;36.96;102736.50;4984838;28;20168;-57
2022/08/10 09:50:39;;;;;;;4.03;2.20;;;;;;;29.70;36.79;102733.97;4973634;28;20437;-58
2022/08/10 09:53:15;;;;;;;7.03;2.20;;;;;;;29.75;35.25;102723.94;4974760;28;20715;-57
2022/08/10 09:56:19;;;;;;;6.72;2.40;;;;;;;29.90;35.05;102719.78;4969409;28;20099;-54
2022/08/10 09:58:51;;;;;;;4.93;2.40;;;;;;;29.30;35.25;102722.91;4969696;28;20124;-54
2022/08/10 10:01:47;;;;;;;6.32;2.30;;;;;;;29.24;35.35;102721.31;4965680;28;20488;-55
2022/08/10 10:04:38;;;;;;;3.28;1.90;;;;;;;29.47;33.70;102723.19;4987350;28;20059;-57
2022/08/10 10:07:10;;;;;;;3.97;2.00;;;;;;;29.32;33.92;102713.88;4977246;28;20137;-55
2022/08/10 10:09:56;;;;;;;6.70;2.00;;;;;;;29.97;33.23;102704.31;4967992;28;20072;-57
2022/08/10 10:12:53;;;;;;;4.13;1.80;;;;;;;29.65;33.56;102709.09;4971145;28;20292;-53
2022/08/10 10:15:51;;;;;;;4.18;1.90;;;;;;;29.73;32.63;102712.38;4965608;28;20053;-53
2022/08/10 10:18:52;;;;;;;2.05;1.38;;;;;;;30.08;32.10;102705.66;4992106;28;20046;-52
2022/08/10 10:21:43;;;;;;;4.82;1.80;;;;;;;30.66;31.60;102707.84;4971997;28;20469;-54
2022/08/10 10:24:34;;;;;;;4.18;1.52;;;;;;;30.73;32.41;102707.53;4976648;28;20589;-55
2022/08/10 10:27:16;;;;;;;3.55;1.60;;;;;;;30.66;31.21;102697.94;4973287;28;20152;-52
2022/08/10 10:29:46;;;;;;;3.50;1.55;;;;;;;30.57;32.14;102703.69;4973564;28;20163;-55
2022/08/10 10:32:49;;;;;;;3.33;1.70;;;;;;;30.85;32.04;102695.34;4980430;28;20476;-53
2022/08/10 10:35:24;;;;;;;3.85;1.77;;;;;;;31.07;30.82;102688.13;4988061;28;20536;-53
2022/08/10 10:37:52;;;;;;;3.80;1.80;;;;;;;30.81;31.08;102693.72;4984467;28;20144;-57
2022/08/10 10:40:19;;;;;;;2.83;1.50;;;;;;;30.99;30.86;102688.41;4989187;28;20026;-57
2022/08/10 10:42:45;;;;;;;3.35;1.60;;;;;;;30.63;30.60;102681.91;4972649;28;20312;-60
2022/08/10 10:45:41;;;;;;;4.00;1.50;;;;;;;30.44;29.12;102695.22;4982085;28;20091;-59
2022/08/10 10:48:21;;;;;;;3.72;1.45;;;;;;;31.09;28.97;102682.66;4981216;28;20065;-57
2022/08/10 10:51:20;;;;;;;2.13;1.50;;;;;;;31.34;29.21;102684.22;4970063;28;20371;-57
2022/08/10 10:53:59;;;;;;;4.00;1.67;;;;;;;30.29;28.92;102679.72;4977726;28;20147;-51
2022/08/10 10:56:58;;;;;;;4.20;1.58;;;;;;;30.49;27.89;102674.44;4981570;28;20512;-56
2022/08/10 10:59:42;;;;;;;5.38;1.40;;;;;;;30.38;29.00;102686.53;4973388;28;20087;-54
2022/08/10 11:02:10;;;;;;;;;;;;;;;30.98;28.31;102680.41;4971015;28;20037;-53
2022/08/10 11:04:46;;;;;;;3.00;1.70;;;;;;;31.09;27.17;102685.38;4966679;28;20024;-55
2022/08/10 11:07:27;;;;;;;3.55;1.50;;;;;;;30.57;27.93;102669.59;4979250;28;20152;-49
2022/08/10 11:10:01;;;;;;;4.10;1.50;;;;;;;31.21;27.99;102679.44;4979676;28;20875;-51
2022/08/10 11:13:16;;;;;;;2.72;1.60;;;;;;;31.02;28.24;102663.16;4975782;28;20033;-50
2022/08/10 11:16:19;;;;;;;3.63;1.65;;;;;;;30.70;28.53;102667.25;4983851;28;20129;-52
2022/08/10 11:19:18;;;;;;;3.80;1.60;;;;;;;30.48;27.28;102658.31;4991306;28;20403;-51
2022/08/10 11:22:09;;;;;;;2.90;1.50;;;;;;;30.89;27.22;102659.25;4970111;28;20118;-54
2022/08/10 11:25:00;;;;;;;2.92;1.70;;;;;;;30.66;28.81;102652.19;4973185;28;20038;-57
2022/08/10 11:28:17;;;;;;;5.70;1.70;;;;;;;31.09;27.62;102663.81;4979359;28;20057;-52
2022/08/10 11:30:51;;;;;;;1.95;1.63;;;;;;;30.76;28.57;102663.41;4971233;28;20071;-50
2022/08/10 11:33:54;;;;;;;2.85;1.90;;;;;;;30.16;30.09;102657.81;4979635;28;20488;-53
2022/08/10 11:37:11;;;;;;;3.10;1.60;;;;;;;30.83;29.56;102659.53;4982466;28;20033;-54
2022/08/10 11:39:51;;;;;;;3.25;1.60;;;;;;;30.80;30.09;102657.81;4930099;28;20085;-50
2022/08/10 11:42:39;;;;;;;5.28;2.00;;;;;;;31.06;30.04;102648.66;4977612;28;20636;-53
2022/08/10 11:45:15;;;;;;;4.70;1.77;;;;;;;31.21;30.66;102647.97;4978391;28;20038;-53
2022/08/10 11:47:55;;;;;;;5.47;2.10;;;;;;;31.53;30.31;102653.72;4981691;28;20036;-55
2022/08/10 11:50:42;;;;;;;9.93;2.00;;;;;;;31.08;30.68;102641.38;4979843;28;20052;-52
2022/08/10 11:53:30;;;;;;;4.85;2.20;;;;;;;30.84;30.24;102632.53;4975523;28;20033;-51
2022/08/10 11:55:58;;;;;;;5.95;1.80;;;;;;;31.64;30.04;102636.13;4975579;28;20029;-52
2022/08/10 12:01:30;;;;;;;4.05;1.80;;;;;;;31.13;30.50;102625.00;4967264;28;20766;-54
2022/08/10 12:03:58;;;;;;;4.20;2.08;;;;;;;31.15;30.84;102633.91;4977540;28;20048;-51
2022/08/10 12:06:29;;;;;;;2.38;1.85;;;;;;;31.27;30.63;102625.25;4982909;28;20033;-52